createdAt,value
2022-10-05T03:15:09.259Z,6.47
2022-10-05T03:20:14.590Z,6.00
2022-10-05T03:25:28.807Z,6.30
2022-10-05T03:30:52.503Z,6.65
2022-10-05T03:35:54.626Z,6.15
2022-10-05T03:41:03.612Z,6.53
2022-10-05T03:46:24.968Z,6.80
2022-10-05T03:51:29.712Z,6.85
2022-10-05T03:56:47.710Z,6.57
2022-10-05T04:01:55.070Z,6.50
2022-10-05T04:06:57.854Z,6.60
2022-10-05T04:12:06.203Z,7.63
2022-10-05T04:17:16.684Z,7.43
2022-10-05T04:22:26.229Z,8.43
2022-10-05T04:27:32.129Z,7.43
2022-10-05T04:32:39.032Z,7.90
2022-10-05T04:38:01.402Z,7.22
2022-10-05T04:43:21.390Z,8.32
2022-10-05T04:48:42.019Z,7.45
2022-10-05T04:54:07.384Z,7.85
2022-10-05T04:59:28.307Z,7.85
2022-10-05T05:04:51.858Z,8.93
2022-10-05T05:10:13.855Z,8.23
2022-10-05T05:15:40.274Z,8.43
2022-10-05T05:20:48.407Z,8.93
2022-10-05T05:25:50.504Z,9.43
2022-10-05T05:30:56.554Z,9.52
2022-10-05T05:36:27.972Z,10.70
2022-10-05T05:41:45.494Z,10.07
2022-10-05T05:47:17.644Z,10.45
2022-10-05T05:52:29.913Z,11.25
2022-10-05T05:57:54.676Z,10.75
2022-10-05T06:03:15.338Z,10.05
2022-10-05T06:08:17.907Z,9.38
2022-10-05T06:13:26.241Z,10.93
2022-10-05T06:18:31.739Z,10.25
2022-10-05T06:23:40.028Z,10.02
2022-10-05T06:28:43.053Z,10.10
2022-10-05T06:33:53.810Z,9.68
2022-10-05T06:39:01.041Z,9.82
2022-10-05T06:44:17.215Z,9.80
2022-10-05T06:49:29.572Z,9.90
2022-10-05T06:54:52.894Z,9.85
2022-10-05T06:59:55.936Z,8.55
2022-10-05T07:05:01.031Z,9.00
2022-10-05T07:10:06.184Z,9.35
2022-10-05T07:15:14.326Z,8.43
2022-10-05T07:20:22.483Z,9.10
2022-10-05T07:25:27.540Z,8.52
2022-10-05T07:30:30.999Z,9.43
2022-10-05T07:35:53.457Z,7.95
2022-10-05T07:40:58.564Z,8.23
2022-10-05T07:46:19.354Z,7.60
2022-10-05T07:51:30.732Z,7.70
2022-10-05T07:56:43.036Z,8.18
2022-10-05T08:01:48.680Z,7.45
2022-10-05T08:06:51.193Z,6.70
2022-10-05T08:12:12.072Z,7.85
2022-10-05T08:17:25.610Z,7.75
2022-10-05T08:22:31.682Z,7.43
2022-10-05T08:27:49.390Z,7.95
2022-10-05T08:32:57.002Z,7.20
2022-10-05T08:37:58.838Z,7.07
2022-10-05T08:43:00.619Z,6.97
2022-10-05T08:48:08.826Z,6.10
2022-10-05T08:53:13.689Z,6.38
2022-10-05T08:58:15.549Z,6.35
2022-10-05T09:03:36.065Z,6.25
2022-10-05T09:08:55.570Z,5.85
2022-10-05T09:13:57.367Z,6.65
2022-10-05T09:19:15.743Z,5.40
2022-10-05T09:24:20.752Z,5.03
2022-10-05T09:29:41.003Z,4.47
2022-10-05T09:35:01.549Z,4.80
2022-10-05T09:40:03.334Z,4.22
2022-10-05T09:45:22.342Z,4.50
2022-10-05T09:50:42.441Z,4.43
2022-10-05T09:55:44.195Z,3.80
2022-10-05T10:00:55.620Z,3.42
2022-10-05T10:06:05.537Z,3.80
2022-10-05T10:11:07.313Z,3.72
2022-10-05T10:16:18.083Z,4.28
2022-10-05T10:21:20.129Z,4.10
2022-10-05T10:26:24.935Z,4.13
2022-10-05T10:31:30.064Z,4.70
2022-10-05T10:36:34.994Z,3.88
2022-10-05T10:41:42.679Z,4.47
2022-10-05T10:47:13.950Z,4.30
2022-10-05T10:52:15.834Z,4.53
2022-10-05T10:57:25.436Z,4.25
2022-10-05T11:02:30.326Z,5.00
2022-10-05T11:07:41.243Z,4.45
2022-10-05T11:12:45.880Z,4.22
2022-10-05T11:18:08.897Z,4.15
2022-10-05T11:23:29.308Z,3.65
2022-10-05T11:28:38.472Z,3.92
2022-10-05T11:33:59.260Z,3.00
2022-10-05T11:39:19.596Z,3.08
2022-10-05T11:44:21.496Z,3.38
2022-10-05T11:49:43.511Z,3.17
2022-10-05T11:55:10.356Z,3.22
2022-10-05T12:00:20.541Z,3.15
2022-10-05T12:05:25.095Z,3.90
2022-10-05T12:10:38.945Z,3.20
2022-10-05T12:15:44.667Z,3.35
2022-10-05T12:20:49.384Z,3.42
2022-10-05T12:25:51.151Z,3.30
2022-10-05T12:31:08.367Z,3.75
2022-10-05T12:36:13.454Z,3.75
2022-10-05T12:41:15.358Z,3.20
2022-10-05T12:46:23.340Z,2.85
2022-10-05T12:51:57.648Z,3.17
2022-10-05T12:57:04.427Z,3.00
2022-10-05T13:02:14.843Z,2.80
2022-10-05T13:07:19.832Z,2.85
2022-10-05T13:12:39.842Z,3.45
2022-10-05T13:17:54.625Z,2.50
2022-10-05T13:23:16.678Z,2.42
2022-10-05T13:28:21.900Z,2.38
2022-10-05T13:33:32.555Z,2.85
2022-10-05T13:38:53.059Z,2.55
2022-10-05T13:44:00.781Z,2.25
2022-10-05T13:49:19.633Z,2.50
2022-10-05T13:54:21.519Z,2.60
2022-10-05T13:59:23.275Z,2.92
